Accueil
METAR-TAF:

METAR-TAF

Aéroports :

Clyde, Nunavut, Canada

latitude: 70-29N, longitude: 068-31W, altitude: 25 m

Observation

Le bulletin a été fait il y a 1 heure et 21 minutes, à 12:00 UTC
Vent calme
Température -3°C
Humidité 86%
Pression 1018 hPa
Visibilité: 14.5 km
Ciel couvert à une hauteur de 9000 ft

METAR: CYCY 011200Z AUTO 00000KT 9SM OVC090 M03/M05 A3005 RMK SLP182

Heure: 09:21 (13:21 UTC)

Prévision

Le bulletin a été fait il y a 43 minutes, à 12:38 UTC
Prévision valable du 01 à 13 UTC au 02 à 01 UTC
Vent 10 kt de est/sud-est
Visibilité: 10 km
Ciel couvert à une hauteur de 9000 ft
Temporairement
du 01 à 13 UTC au 02 à 01 UTC
Visibilité: 10 km
neige faible

TAF: CYCY 011238Z 0113/0201 12010KT P6SM OVC090 TEMPO 0113/0201 P6SM -SN RMK FCST BASED ON AUTO OBS. NXT FCST BY 011900Z

Observations et prévisions météorologiques de plus de 4000 aéroports (messages METAR et TAF).

Les stations disponibles sont représentées par des disques jaunes et rouges sur la carte.

Passer la souris dessus pour voir le nom de la station.

Cliquer dessus pour voir les observations et prévisions météorologiques.

Pour changer de carte: cliquez sur les boutons verts avec une croix noire pour zoomer, sur le bouton vert avec un tiret pour effectuer un zoom arrière, ou sur les flèches vertes pour les cartes adjacentes.


METAR-TAF: